This is the latest recevied weather packets stored in our database for station/object CA4LJZ-10. If no packets are shown the sender has not sent any weather packets the latest 10 day(s).
| Time | Temp. | Humidity | Pressure | Rain* | Wind** | Luminosity | Snow |
|---|---|---|---|---|---|---|---|
| 1777638217 | 15.56° C | 64% | 957.5 hPa | - | - | - | - |
| 1777637316 | 16.67° C | 62% | 957.2 hPa | - | - | - | - |
| 1777636414 | 18.33° C | 58% | 957.1 hPa | - | - | - | - |
| 1777635513 | 17.22° C | 61% | 957 hPa | - | - | - | - |
| 1777634612 | 15.56° C | 67% | 956.8 hPa | - | - | - | - |
| 1777633711 | 15.56° C | 65% | 956.8 hPa | - | - | - | - |
| 1777632811 | 16.67° C | 61% | 956.5 hPa | - | - | - | - |
| 1777631910 | 16.67° C | 65% | 956.3 hPa | - | - | - | - |
| 1777631009 | 15.56° C | 66% | 956 hPa | - | - | - | - |
| 1777630108 | 15° C | 68% | 955.9 hPa | - | - | - | - |
| 1777629207 | 15° C | 68% | 955.9 hPa | - | - | - | - |
| 1777628306 | 15.56° C | 65% | 955.8 hPa | - | - | - | - |
| 1777627405 | 15.56° C | 66% | 955.5 hPa | - | - | - | - |
| 1777626503 | 15.56° C | 66% | 955.5 hPa | - | - | - | - |
| 1777625602 | 16.11° C | 63% | 955.4 hPa | - | - | - | - |
| 1777624702 | 16.11° C | 63% | 955.5 hPa | - | - | - | - |
| 1777623801 | 15.56° C | 65% | 955 hPa | - | - | - | - |
| 1777622900 | 15.56° C | 64% | 955.1 hPa | - | - | - | - |
| 1777621999 | 16.11° C | 65% | 955.3 hPa | - | - | - | - |
| 1777621098 | 15° C | 67% | 955 hPa | - | - | - | - |
| 1777620197 | 16.11° C | 62% | 955.3 hPa | - | - | - | - |
| 1777619296 | 15.56° C | 64% | 955.1 hPa | - | - | - | - |
| 1777618394 | 17.22° C | 62% | 955.1 hPa | - | - | - | - |
| 1777617517 | 16.11° C | 63% | 955.1 hPa | - | - | - | - |
| 1777616616 | 16.67° C | 60% | 955.1 hPa | - | - | - | - |
* Rain since midnight (hover to see other rain measurements)
** Current wind speed in m/s (hover to see current wind gust speed)